Terminal Aerodrome Forecast
Issued by NWS Louisville, KY

Home | Current Version | Previous Version | Text Only | Print | Product List | Glossary On
Versions: 1 2 3 4 5 6 7 8 9 10 11 12 13 14 15 16 17 18 19 20 21
137
FTUS43 KLMK 291125
TAFLEX
TAF
KLEX 291125Z 2912/3012 04008KT P6SM OVC022
     FM291600 05010KT P6SM BKN028
     FM291900 07010KT P6SM SCT028 SCT200
     FM300000 08010KT P6SM BKN200=

USA.gov is the U.S. government's official web portal to all federal, state and local government web resources and services.